createdAt,value
2019-02-22T00:00:24.245Z,-40.00
2019-02-22T00:01:24.236Z,-40.00
2019-02-22T00:02:24.232Z,-40.00
2019-02-22T00:04:24.221Z,-40.00
2019-02-22T00:05:24.226Z,-40.00
2019-02-22T00:06:24.203Z,-40.00
2019-02-22T00:07:24.196Z,-40.00
2019-02-22T00:08:24.187Z,-40.00
2019-02-22T00:09:24.185Z,-40.00
2019-02-22T00:10:24.182Z,-40.00
2019-02-22T00:11:24.176Z,-40.00
2019-02-22T00:12:24.166Z,-40.00
2019-02-22T00:13:24.154Z,-40.00
2019-02-22T00:14:24.157Z,-40.00
2019-02-22T00:15:24.148Z,-40.00
2019-02-22T00:16:24.136Z,-40.00
2019-02-22T00:17:24.135Z,-40.00
2019-02-22T00:18:24.128Z,-40.00
2019-02-22T00:19:24.121Z,-40.00
2019-02-22T00:20:24.108Z,-40.00
2019-02-22T00:21:24.111Z,-40.00
2019-02-22T00:22:24.095Z,-40.00
2019-02-22T00:23:24.095Z,-40.00
2019-02-22T00:24:24.089Z,-40.00
2019-02-22T00:26:24.072Z,9.72
2019-02-22T00:27:24.272Z,9.72
2019-02-22T00:28:24.258Z,9.69
2019-02-22T00:29:24.055Z,9.64
2019-02-22T00:30:24.045Z,9.69
2019-02-22T00:31:24.240Z,9.72
2019-02-22T00:32:24.033Z,9.64
2019-02-22T00:33:24.230Z,9.69
2019-02-22T00:35:24.043Z,9.69
2019-02-22T00:36:24.213Z,9.72
2019-02-22T00:37:24.036Z,9.64
2019-02-22T00:38:23.994Z,9.68
2019-02-22T00:39:23.988Z,9.65
2019-02-22T00:40:23.981Z,9.68
2019-02-22T00:41:23.974Z,9.72
2019-02-22T00:42:23.970Z,9.72
2019-02-22T00:43:24.015Z,9.69
2019-02-22T00:44:23.951Z,9.65
2019-02-22T00:45:23.941Z,-40.00
2019-02-22T00:46:23.940Z,-40.00
2019-02-22T00:47:24.130Z,-40.00
2019-02-22T00:48:24.129Z,-40.00
2019-02-22T00:49:23.924Z,-40.00
2019-02-22T00:50:23.919Z,-40.00
2019-02-22T00:51:23.908Z,-40.00
2019-02-22T00:52:23.905Z,-40.00
2019-02-22T00:53:23.894Z,-40.00
2019-02-22T00:54:23.894Z,-40.00
2019-02-22T00:55:24.083Z,-40.00
2019-02-22T00:56:23.872Z,-40.00
2019-02-22T00:57:24.076Z,-40.00
2019-02-22T00:58:23.860Z,-40.00
2019-02-22T00:59:23.852Z,-40.00
2019-02-22T01:00:23.849Z,-40.00
2019-02-22T01:01:23.845Z,-40.00
2019-02-22T01:02:23.836Z,-40.00
2019-02-22T01:03:23.825Z,-40.00
2019-02-22T01:04:23.820Z,-40.00
2019-02-22T01:05:24.018Z,-40.00
2019-02-22T01:06:23.810Z,-40.00
2019-02-22T01:07:23.806Z,-40.00
2019-02-22T01:09:23.795Z,-40.00
2019-02-22T01:10:31.217Z,-40.00
2019-02-22T01:11:23.782Z,-40.00
2019-02-22T01:12:23.969Z,-40.00
2019-02-22T01:13:23.768Z,-40.00
2019-02-22T01:14:23.759Z,-40.00
2019-02-22T01:15:23.750Z,-40.00
2019-02-22T01:16:23.741Z,-40.00
2019-02-22T01:17:23.741Z,-40.00
2019-02-22T01:18:23.735Z,-40.00
2019-02-22T01:19:23.724Z,-40.00
2019-02-22T01:20:23.718Z,-40.00
2019-02-22T01:21:23.708Z,-40.00
2019-02-22T01:22:23.704Z,-40.00
2019-02-22T01:24:23.688Z,-40.00
2019-02-22T01:25:23.681Z,-40.00
2019-02-22T01:26:23.678Z,-40.00
2019-02-22T01:27:23.667Z,-40.00
2019-02-22T01:28:23.667Z,-40.00
2019-02-22T01:29:23.655Z,-40.00
2019-02-22T01:30:23.653Z,-40.00
2019-02-22T01:31:23.649Z,-40.00
2019-02-22T01:34:23.630Z,-40.00
2019-02-22T01:36:23.609Z,-40.00
2019-02-22T01:37:24.018Z,-40.00
2019-02-22T01:38:23.600Z,-40.00
2019-02-22T01:39:23.599Z,-40.00
2019-02-22T01:40:23.586Z,-40.00
2019-02-22T01:41:23.583Z,-40.00
2019-02-22T01:42:23.776Z,-40.00
2019-02-22T01:44:23.562Z,-40.00
2019-02-22T01:45:23.554Z,-40.00
2019-02-22T01:46:23.544Z,-40.00
2019-02-22T01:47:23.537Z,-40.00
2019-02-22T01:48:23.535Z,-40.00
2019-02-22T01:49:23.533Z,-40.00
2019-02-22T01:50:23.523Z,-40.00
2019-02-22T01:51:23.512Z,-40.00
2019-02-22T01:52:23.508Z,-40.00
2019-02-22T01:53:23.500Z,-40.00
2019-02-22T01:54:23.499Z,-40.00
2019-02-22T01:55:23.498Z,-40.00
2019-02-22T01:56:23.482Z,-40.00
2019-02-22T01:57:23.479Z,-40.00
2019-02-22T01:58:23.466Z,-40.00
2019-02-22T01:59:23.460Z,-40.00
2019-02-22T02:00:23.662Z,-40.00
2019-02-22T02:01:23.449Z,-40.00
2019-02-22T02:02:23.448Z,-40.00
2019-02-22T02:03:23.433Z,-40.00
2019-02-22T02:04:23.429Z,-40.00
2019-02-22T02:05:23.425Z,-40.00
2019-02-22T02:06:23.617Z,-40.00
2019-02-22T02:07:23.414Z,-40.00
2019-02-22T02:08:23.609Z,-40.00
2019-02-22T02:09:23.397Z,-40.00
2019-02-22T02:10:23.389Z,-40.00
2019-02-22T02:11:23.385Z,-40.00
2019-02-22T02:12:23.585Z,-40.00
2019-02-22T02:13:23.369Z,-40.00
2019-02-22T02:14:23.377Z,-40.00
2019-02-22T02:16:23.554Z,-40.00
2019-02-22T02:17:23.347Z,-40.00
2019-02-22T02:18:23.338Z,-40.00
2019-02-22T02:19:23.337Z,-40.00
2019-02-22T02:20:23.341Z,-40.00
2019-02-22T02:21:23.321Z,-40.00
2019-02-22T02:22:23.319Z,-40.00
2019-02-22T02:23:23.516Z,-40.00
2019-02-22T02:24:23.305Z,-40.00
2019-02-22T02:25:23.293Z,-40.00
2019-02-22T02:27:23.277Z,-40.00
2019-02-22T02:28:23.280Z,-40.00
2019-02-22T02:29:23.271Z,-40.00
2019-02-22T02:30:23.469Z,-40.00
2019-02-22T02:31:23.257Z,-40.00
2019-02-22T02:32:23.249Z,-40.00
2019-02-22T02:33:23.245Z,-40.00
2019-02-22T02:34:23.244Z,-40.00
2019-02-22T02:36:23.226Z,-40.00
2019-02-22T02:37:23.216Z,-40.00
2019-02-22T02:38:23.211Z,-40.00
2019-02-22T02:39:23.214Z,-40.00
2019-02-22T02:40:23.197Z,-40.00
2019-02-22T02:41:23.189Z,-40.00
2019-02-22T02:42:23.184Z,-40.00
2019-02-22T02:43:23.178Z,-40.00
2019-02-22T02:44:23.169Z,-40.00
2019-02-22T02:45:23.573Z,-40.00
2019-02-22T02:46:23.179Z,-40.00
2019-02-22T02:47:23.358Z,-40.00
2019-02-22T02:48:23.141Z,-40.00
2019-02-22T02:49:23.144Z,-40.00
2019-02-22T02:51:23.129Z,-40.00
2019-02-22T02:52:23.118Z,-40.00
2019-02-22T02:53:23.112Z,-40.00
2019-02-22T02:54:23.109Z,-40.00
2019-02-22T02:55:23.097Z,-40.00
2019-02-22T02:56:23.090Z,-40.00
2019-02-22T02:57:23.083Z,-40.00
2019-02-22T02:58:23.084Z,-40.00
2019-02-22T02:59:23.074Z,-40.00
2019-02-22T03:00:23.068Z,-40.00
2019-02-22T03:01:23.063Z,-40.00
2019-02-22T03:03:23.047Z,-40.00
2019-02-22T03:04:23.046Z,-40.00
2019-02-22T03:05:23.040Z,-40.00
2019-02-22T03:06:23.033Z,-40.00
2019-02-22T03:07:23.021Z,-40.00
2019-02-22T03:08:23.017Z,-40.00
2019-02-22T03:09:23.010Z,-40.00
2019-02-22T03:10:23.003Z,-40.00
2019-02-22T03:11:22.999Z,-40.00
2019-02-22T03:12:22.987Z,-40.00
2019-02-22T03:13:22.982Z,-40.00
2019-02-22T03:14:22.988Z,-40.00
2019-02-22T03:15:22.982Z,-40.00
2019-02-22T03:16:22.965Z,-40.00
2019-02-22T03:17:22.957Z,-40.00
2019-02-22T03:18:22.953Z,-40.00
2019-02-22T03:19:23.151Z,-40.00
2019-02-22T03:20:22.942Z,-40.00
2019-02-22T03:22:23.127Z,-40.00
2019-02-22T03:23:23.119Z,-40.00
2019-02-22T03:24:22.915Z,-40.00
2019-02-22T03:26:23.106Z,-40.00
2019-02-22T03:27:22.892Z,-40.00
2019-02-22T03:28:22.888Z,-40.00
2019-02-22T03:29:22.932Z,-40.00
2019-02-22T03:30:22.881Z,-40.00
2019-02-22T03:32:22.862Z,-40.00
2019-02-22T03:33:22.862Z,-40.00
2019-02-22T03:34:22.855Z,-40.00
2019-02-22T03:35:22.843Z,-40.00
2019-02-22T03:36:22.853Z,-40.00
2019-02-22T03:37:22.830Z,-40.00
2019-02-22T03:38:22.829Z,-40.00
2019-02-22T03:39:23.018Z,-40.00
2019-02-22T03:42:22.797Z,-40.00
2019-02-22T03:43:22.797Z,-40.00
2019-02-22T03:44:22.787Z,-40.00
2019-02-22T03:45:22.797Z,-40.00
2019-02-22T03:47:22.766Z,-40.00
2019-02-22T03:48:22.765Z,-40.00
2019-02-22T03:49:22.759Z,-40.00
2019-02-22T03:51:22.738Z,-40.00
2019-02-22T03:52:22.738Z,-40.00
2019-02-22T03:53:22.929Z,-40.00
2019-02-22T03:54:22.928Z,-40.00
2019-02-22T03:55:22.716Z,-40.00
2019-02-22T03:56:22.713Z,-40.00
2019-02-22T03:57:22.702Z,-40.00
2019-02-22T03:58:22.703Z,-40.00
2019-02-22T03:59:22.895Z,-40.00
2019-02-22T04:00:22.687Z,-40.00
2019-02-22T04:01:22.883Z,-40.00
2019-02-22T04:02:22.672Z,-40.00
2019-02-22T04:03:22.666Z,-40.00
2019-02-22T04:04:23.065Z,-40.00
2019-02-22T04:05:22.856Z,-40.00
2019-02-22T04:06:22.645Z,-40.00
2019-02-22T04:07:22.639Z,-40.00
2019-02-22T04:08:22.635Z,-40.00
2019-02-22T04:09:22.628Z,-40.00
2019-02-22T04:10:22.621Z,-40.00
2019-02-22T04:11:22.617Z,-40.00
2019-02-22T04:12:22.606Z,-40.00
2019-02-22T04:13:22.607Z,-40.00
2019-02-22T04:15:22.795Z,-40.00
2019-02-22T04:16:22.581Z,-40.00
2019-02-22T04:17:22.577Z,-40.00
2019-02-22T04:19:22.565Z,-40.00
2019-02-22T04:20:22.560Z,-40.00
2019-02-22T04:21:22.550Z,-40.00
2019-02-22T04:22:22.553Z,-40.00
2019-02-22T04:23:22.540Z,-40.00
2019-02-22T04:24:22.737Z,-40.00
2019-02-22T04:25:22.529Z,-40.00
2019-02-22T04:26:22.520Z,-40.00
2019-02-22T04:27:22.507Z,-40.00
2019-02-22T04:28:22.505Z,-40.00
2019-02-22T04:29:22.508Z,9.73
2019-02-22T04:30:22.491Z,9.65
2019-02-22T04:31:22.490Z,9.65
2019-02-22T04:32:22.493Z,9.69
2019-02-22T04:33:23.678Z,9.61
2019-02-22T04:34:22.471Z,9.72
2019-02-22T04:35:22.456Z,9.61
2019-02-22T04:36:22.453Z,9.64
2019-02-22T04:37:22.454Z,9.68
2019-02-22T04:38:22.446Z,9.61
2019-02-22T04:39:22.434Z,9.62
2019-02-22T04:40:22.632Z,9.62
2019-02-22T04:41:22.421Z,9.55
2019-02-22T04:43:22.406Z,9.58
2019-02-22T04:44:23.617Z,9.64
2019-02-22T04:45:22.401Z,9.61
2019-02-22T04:46:22.385Z,9.65
2019-02-22T04:47:22.377Z,-40.00
2019-02-22T04:48:22.374Z,-40.00
2019-02-22T04:49:22.377Z,-40.00
2019-02-22T04:51:22.359Z,-40.00
2019-02-22T04:52:22.352Z,-40.00
2019-02-22T04:53:22.344Z,-40.00
2019-02-22T04:54:22.338Z,-40.00
2019-02-22T04:55:22.735Z,-40.00
2019-02-22T04:56:22.322Z,-40.00
2019-02-22T04:57:22.315Z,-40.00
2019-02-22T04:58:22.309Z,-40.00
2019-02-22T04:59:22.303Z,-40.00
2019-02-22T05:02:22.284Z,-40.00
2019-02-22T05:03:22.278Z,-40.00
2019-02-22T05:04:22.276Z,-40.00
2019-02-22T05:05:22.264Z,-40.00
2019-02-22T05:06:22.259Z,-40.00
2019-02-22T05:07:22.252Z,-40.00
2019-02-22T05:08:22.241Z,-40.00
2019-02-22T05:10:22.231Z,-40.00
2019-02-22T05:12:22.241Z,-40.00
2019-02-22T05:13:22.211Z,-40.00
2019-02-22T05:14:22.203Z,-40.00
2019-02-22T05:15:22.205Z,-40.00
2019-02-22T05:16:22.194Z,-40.00
2019-02-22T05:17:22.193Z,-40.00
2019-02-22T05:18:22.185Z,-40.00
2019-02-22T05:19:22.207Z,-40.00
2019-02-22T05:21:22.167Z,-40.00
2019-02-22T05:23:22.157Z,-40.00
2019-02-22T05:24:22.152Z,-40.00
2019-02-22T05:25:22.140Z,-40.00
2019-02-22T05:26:22.132Z,-40.00
2019-02-22T05:27:22.331Z,-40.00
2019-02-22T05:28:22.120Z,-40.00
2019-02-22T05:29:22.119Z,-40.00
2019-02-22T05:30:22.108Z,-40.00
2019-02-22T05:31:22.102Z,-40.00
2019-02-22T05:32:22.098Z,-40.00
2019-02-22T05:33:22.092Z,-40.00
2019-02-22T05:34:22.086Z,-40.00
2019-02-22T05:35:22.076Z,-40.00
2019-02-22T05:37:22.061Z,-40.00
2019-02-22T05:38:22.263Z,-40.00
2019-02-22T05:39:22.253Z,-40.00
2019-02-22T05:40:22.053Z,-40.00
2019-02-22T05:41:22.040Z,-40.00
2019-02-22T05:42:23.204Z,-40.00
2019-02-22T05:43:22.026Z,-40.00
2019-02-22T05:44:22.025Z,-40.00
2019-02-22T05:45:22.020Z,-40.00
2019-02-22T05:46:22.014Z,-40.00
2019-02-22T05:47:22.008Z,-40.00
2019-02-22T05:48:21.998Z,-40.00
2019-02-22T05:49:22.524Z,-40.00
2019-02-22T05:50:21.994Z,-40.00
2019-02-22T05:51:21.983Z,-40.00
2019-02-22T05:52:23.198Z,-40.00
2019-02-22T05:53:22.168Z,-40.00
2019-02-22T05:54:21.957Z,-40.00
2019-02-22T05:55:21.957Z,-40.00
2019-02-22T05:56:21.949Z,-40.00
2019-02-22T05:57:21.988Z,-40.00
2019-02-22T05:58:21.940Z,-40.00
2019-02-22T05:59:21.930Z,-40.00
2019-02-22T06:00:21.967Z,-40.00
2019-02-22T06:02:21.912Z,-40.00
2019-02-22T06:03:21.963Z,-40.00
2019-02-22T06:05:21.894Z,-40.00
2019-02-22T06:06:21.891Z,-40.00
2019-02-22T06:07:21.893Z,-40.00
2019-02-22T06:08:21.876Z,-40.00
2019-02-22T06:09:21.869Z,-40.00
2019-02-22T06:10:21.864Z,-40.00
2019-02-22T06:11:21.857Z,-40.00
2019-02-22T06:12:21.851Z,-40.00
2019-02-22T06:13:21.845Z,-40.00
2019-02-22T06:14:21.837Z,-40.00
2019-02-22T06:15:21.834Z,-40.00
2019-02-22T06:16:21.830Z,-40.00
2019-02-22T06:17:21.821Z,-40.00
2019-02-22T06:18:23.150Z,-40.00
2019-02-22T06:19:22.006Z,-40.00
2019-02-22T06:20:21.812Z,-40.00
2019-02-22T06:21:21.799Z,-40.00
2019-02-22T06:22:29.647Z,-40.00
2019-02-22T06:23:21.781Z,-40.00
2019-02-22T06:24:21.780Z,-40.00
2019-02-22T06:25:21.768Z,-40.00
2019-02-22T06:26:21.770Z,-40.00
2019-02-22T06:27:21.760Z,-40.00
2019-02-22T06:28:21.756Z,-40.00
2019-02-22T06:30:21.743Z,-40.00
2019-02-22T06:31:21.737Z,-40.00
2019-02-22T06:32:21.729Z,-40.00
2019-02-22T06:34:21.721Z,-40.00
2019-02-22T06:35:21.712Z,-40.00
2019-02-22T06:36:21.701Z,-40.00
2019-02-22T06:37:21.698Z,-40.00
2019-02-22T06:38:21.694Z,-40.00
2019-02-22T06:39:21.694Z,-40.00
2019-02-22T06:40:21.679Z,-40.00
2019-02-22T06:41:21.979Z,-40.00
2019-02-22T06:42:21.668Z,-40.00
2019-02-22T06:43:21.662Z,-40.00
2019-02-22T06:44:21.657Z,-40.00
2019-02-22T06:45:21.655Z,-40.00
2019-02-22T06:46:21.642Z,-40.00
2019-02-22T06:47:22.859Z,-40.00
2019-02-22T06:48:21.632Z,-40.00
2019-02-22T06:49:21.832Z,-40.00
2019-02-22T06:51:21.610Z,-40.00
2019-02-22T06:52:21.605Z,-40.00
2019-02-22T06:54:21.602Z,-40.00
2019-02-22T06:55:21.595Z,-40.00
2019-02-22T06:56:24.189Z,-40.00
2019-02-22T06:57:21.580Z,-40.00
2019-02-22T06:58:21.572Z,-40.00
2019-02-22T06:59:21.561Z,-40.00
2019-02-22T07:00:21.764Z,-40.00
2019-02-22T07:01:21.554Z,-40.00
2019-02-22T07:02:21.545Z,-40.00
2019-02-22T07:03:21.738Z,-40.00
2019-02-22T07:04:21.533Z,-40.00
2019-02-22T07:05:21.733Z,-40.00
2019-02-22T07:06:21.519Z,-40.00
2019-02-22T07:07:56.783Z,-40.00
2019-02-22T07:08:21.515Z,-40.00
2019-02-22T07:09:21.501Z,-40.00
2019-02-22T07:10:21.497Z,-40.00
2019-02-22T07:11:21.489Z,-40.00
2019-02-22T07:12:21.498Z,-40.00
2019-02-22T07:13:21.479Z,-40.00
2019-02-22T07:14:21.481Z,-40.00
2019-02-22T07:16:21.467Z,-40.00
2019-02-22T07:17:21.457Z,-40.00
2019-02-22T07:19:21.443Z,-40.00
2019-02-22T07:20:21.435Z,-40.00
2019-02-22T07:21:21.436Z,-40.00
2019-02-22T07:23:21.430Z,-40.00
2019-02-22T07:24:21.417Z,-40.00
2019-02-22T07:25:21.608Z,-40.00
2019-02-22T07:27:21.603Z,-40.00
2019-02-22T07:28:21.397Z,-40.00
2019-02-22T07:29:22.279Z,-40.00
2019-02-22T07:30:21.385Z,-40.00
2019-02-22T07:32:22.593Z,-40.00
2019-02-22T07:33:21.362Z,-40.00
2019-02-22T07:34:21.561Z,-40.00
2019-02-22T07:35:21.557Z,-40.00
2019-02-22T07:36:21.349Z,-40.00
2019-02-22T07:37:21.343Z,-40.00
2019-02-22T07:38:21.333Z,-40.00
2019-02-22T07:39:27.843Z,-40.00
2019-02-22T07:40:21.323Z,-40.00
2019-02-22T07:41:21.318Z,9.74
2019-02-22T07:42:21.313Z,9.89
2019-02-22T07:43:21.302Z,9.84
2019-02-22T07:44:21.296Z,9.80
2019-02-22T07:45:21.497Z,9.89
2019-02-22T07:46:21.295Z,9.83
2019-02-22T07:47:21.283Z,9.86
2019-02-22T07:49:21.268Z,9.82
2019-02-22T07:50:21.269Z,9.92
2019-02-22T07:51:21.258Z,9.80
2019-02-22T07:52:21.455Z,9.94
2019-02-22T07:53:21.244Z,9.82
2019-02-22T07:55:21.435Z,9.86
2019-02-22T07:56:21.228Z,9.83
2019-02-22T07:57:21.228Z,9.87
2019-02-22T07:58:21.218Z,9.86
2019-02-22T08:00:21.414Z,9.94
2019-02-22T08:03:21.197Z,9.87
2019-02-22T08:04:21.211Z,9.94
2019-02-22T08:05:21.181Z,9.97
2019-02-22T08:07:21.172Z,9.99
2019-02-22T08:08:21.165Z,9.99
2019-02-22T08:09:21.155Z,9.99
2019-02-22T08:10:21.152Z,10.02
2019-02-22T08:11:21.147Z,10.02
2019-02-22T08:12:21.344Z,10.02
2019-02-22T08:13:21.145Z,9.99
2019-02-22T08:14:21.134Z,10.09
2019-02-22T08:15:21.123Z,10.12
2019-02-22T08:17:21.115Z,10.16
2019-02-22T08:18:21.108Z,10.22
2019-02-22T08:19:21.107Z,10.33
2019-02-22T08:20:21.099Z,10.34
2019-02-22T08:21:21.091Z,10.34
2019-02-22T08:22:21.293Z,10.30
2019-02-22T08:23:21.083Z,10.26
2019-02-22T08:24:21.077Z,10.28
2019-02-22T08:25:21.073Z,10.26
2019-02-22T08:26:21.272Z,10.22
2019-02-22T08:28:21.060Z,10.25
2019-02-22T08:31:21.048Z,10.20
2019-02-22T08:32:21.045Z,10.31
2019-02-22T08:33:21.035Z,10.23
2019-02-22T08:34:21.033Z,10.31
2019-02-22T08:35:21.021Z,10.31
2019-02-22T08:36:21.016Z,10.31
2019-02-22T08:37:21.014Z,10.25
2019-02-22T08:38:21.011Z,10.20
2019-02-22T08:40:20.995Z,10.34
2019-02-22T08:41:20.997Z,10.31
2019-02-22T08:42:20.983Z,10.41
2019-02-22T08:43:31.064Z,10.48
2019-02-22T08:44:20.978Z,10.49
2019-02-22T08:45:20.970Z,10.49
2019-02-22T08:46:20.967Z,10.57
2019-02-22T08:48:21.160Z,10.59
2019-02-22T08:49:20.954Z,10.57
2019-02-22T08:51:20.939Z,10.63
2019-02-22T08:52:20.937Z,10.67
2019-02-22T08:53:20.934Z,10.59
2019-02-22T08:55:20.920Z,10.68
2019-02-22T08:56:20.925Z,10.74
2019-02-22T08:57:20.916Z,10.75
2019-02-22T08:58:20.912Z,10.89
2019-02-22T08:59:21.104Z,10.89
2019-02-22T09:00:20.910Z,10.82
2019-02-22T09:01:20.897Z,10.94
2019-02-22T09:02:20.895Z,10.96
2019-02-22T09:03:20.888Z,11.19
2019-02-22T09:04:20.884Z,11.12
2019-02-22T09:05:21.081Z,11.25
2019-02-22T09:07:20.866Z,11.15
2019-02-22T09:08:20.869Z,11.22
2019-02-22T09:09:20.867Z,11.33
2019-02-22T09:10:20.860Z,11.33
2019-02-22T09:11:20.854Z,11.32
2019-02-22T09:13:20.846Z,11.37
2019-02-22T09:14:20.843Z,11.41
2019-02-22T09:15:20.837Z,11.41
2019-02-22T09:16:21.037Z,11.43
2019-02-22T09:17:20.831Z,11.30
2019-02-22T09:18:20.828Z,11.41
2019-02-22T09:19:21.020Z,11.35
2019-02-22T09:21:21.010Z,11.51
2019-02-22T09:22:23.067Z,11.57
2019-02-22T09:24:20.804Z,11.57
2019-02-22T09:25:20.794Z,11.59
2019-02-22T09:26:20.793Z,11.57
2019-02-22T09:27:20.784Z,11.66
2019-02-22T09:28:20.986Z,11.69
2019-02-22T09:29:20.779Z,11.81
2019-02-22T09:30:20.773Z,11.73
2019-02-22T09:31:20.768Z,11.73
2019-02-22T09:32:20.766Z,11.78
2019-02-22T09:33:20.768Z,11.86
2019-02-22T09:34:20.762Z,11.94
2019-02-22T09:35:20.753Z,12.02
2019-02-22T09:36:20.753Z,11.86
2019-02-22T09:39:20.940Z,11.94
2019-02-22T09:40:20.742Z,12.00
2019-02-22T09:41:20.729Z,11.97
2019-02-22T09:42:20.734Z,11.97
2019-02-22T09:43:20.726Z,11.99
2019-02-22T09:45:20.720Z,11.94
2019-02-22T09:46:20.720Z,11.90
2019-02-22T09:47:20.713Z,11.86
2019-02-22T09:48:21.032Z,11.80
2019-02-22T09:49:20.717Z,11.78
2019-02-22T09:50:20.701Z,11.77
2019-02-22T09:51:20.695Z,11.94
2019-02-22T09:52:20.692Z,11.91
2019-02-22T09:53:53.899Z,11.90
2019-02-22T09:54:20.690Z,11.95
2019-02-22T09:55:20.685Z,11.84
2019-02-22T09:56:20.674Z,12.00
2019-02-22T09:57:20.688Z,11.83
2019-02-22T09:58:20.667Z,11.78
2019-02-22T09:59:20.664Z,11.83
2019-02-22T10:00:20.662Z,11.94
2019-02-22T10:01:20.660Z,11.86
2019-02-22T10:02:20.655Z,11.78
2019-02-22T10:04:20.647Z,11.66
2019-02-22T10:05:20.641Z,11.86
2019-02-22T10:06:20.642Z,11.78
2019-02-22T10:07:20.831Z,11.86
2019-02-22T10:08:20.641Z,11.90
2019-02-22T10:10:20.628Z,11.95
2019-02-22T10:11:20.829Z,11.81
2019-02-22T10:12:20.616Z,11.80
2019-02-22T10:13:20.809Z,11.86
2019-02-22T10:15:20.671Z,11.86
2019-02-22T10:16:20.600Z,11.90
2019-02-22T10:18:20.591Z,12.00
2019-02-22T10:19:20.590Z,12.03
2019-02-22T10:20:20.585Z,12.17
2019-02-22T10:21:20.579Z,12.06
2019-02-22T10:22:20.573Z,12.17
2019-02-22T10:23:20.575Z,12.13
2019-02-22T10:24:20.574Z,12.22
2019-02-22T10:25:20.571Z,12.32
2019-02-22T10:27:20.592Z,12.25
2019-02-22T10:28:20.557Z,12.31
2019-02-22T10:29:20.553Z,12.27
2019-02-22T10:30:20.548Z,12.50
2019-02-22T10:31:20.547Z,12.53
2019-02-22T10:32:20.747Z,12.67
2019-02-22T10:33:20.536Z,12.78
2019-02-22T10:34:20.542Z,12.91
2019-02-22T10:36:20.529Z,13.12
2019-02-22T10:37:20.530Z,13.16
2019-02-22T10:40:20.559Z,13.20
2019-02-22T10:41:20.515Z,13.30
2019-02-22T10:42:20.518Z,13.31
2019-02-22T10:43:20.514Z,13.31
2019-02-22T10:44:20.515Z,13.33
2019-02-22T10:45:20.511Z,13.37
2019-02-22T10:46:22.249Z,13.42
2019-02-22T10:47:20.503Z,13.44
2019-02-22T10:48:20.503Z,13.65
2019-02-22T10:49:20.497Z,13.59
2019-02-22T10:50:20.497Z,13.79
2019-02-22T10:51:20.699Z,13.79
2019-02-22T10:53:20.496Z,13.92
2019-02-22T10:54:20.489Z,14.00
2019-02-22T10:55:20.492Z,14.05
2019-02-22T10:56:20.490Z,14.25
2019-02-22T10:57:20.492Z,14.17
2019-02-22T10:58:20.491Z,14.22
2019-02-22T10:59:20.486Z,14.35
2019-02-22T11:00:20.482Z,14.35
2019-02-22T11:01:20.489Z,14.45
2019-02-22T11:02:20.479Z,14.58
2019-02-22T11:03:20.485Z,14.66
2019-02-22T11:05:20.482Z,14.78
2019-02-22T11:07:20.478Z,14.96
2019-02-22T11:08:20.479Z,14.89
2019-02-22T11:09:20.473Z,14.96
2019-02-22T11:10:20.481Z,14.99
2019-02-22T11:12:20.477Z,14.97
2019-02-22T11:13:21.391Z,14.99
2019-02-22T11:14:28.935Z,14.85
2019-02-22T11:15:20.474Z,14.82
2019-02-22T11:16:20.470Z,14.60
2019-02-22T11:17:20.473Z,14.58
2019-02-22T11:18:20.465Z,14.47
2019-02-22T11:19:20.465Z,14.58
2019-02-22T11:20:20.465Z,14.53
2019-02-22T11:21:20.467Z,14.53
2019-02-22T11:22:20.463Z,14.72
2019-02-22T11:23:20.462Z,14.86
2019-02-22T11:24:20.666Z,15.40
2019-02-22T11:25:20.461Z,15.55
2019-02-22T11:26:20.671Z,15.65
2019-02-22T11:27:20.468Z,15.82
2019-02-22T11:28:20.463Z,16.16
2019-02-22T11:29:20.469Z,16.28
2019-02-22T11:30:20.462Z,16.23
2019-02-22T11:32:20.470Z,16.35
2019-02-22T11:33:20.468Z,16.31
2019-02-22T11:35:20.470Z,16.01
2019-02-22T11:36:20.470Z,15.73
2019-02-22T11:37:20.467Z,15.52
2019-02-22T11:38:20.471Z,15.64
2019-02-22T11:39:20.464Z,15.39
2019-02-22T11:40:20.469Z,14.94
2019-02-22T11:41:20.465Z,14.82
2019-02-22T11:43:20.467Z,14.81
2019-02-22T11:44:20.461Z,14.86
2019-02-22T11:46:20.462Z,14.60
2019-02-22T11:48:20.455Z,14.40
2019-02-22T11:50:20.661Z,14.36
2019-02-22T11:54:20.455Z,14.62
2019-02-22T11:55:20.447Z,14.65
2019-02-22T11:56:20.450Z,14.82
2019-02-22T11:57:20.448Z,14.82
2019-02-22T11:59:20.447Z,14.77
2019-02-22T12:00:20.653Z,14.82
2019-02-22T12:01:20.444Z,14.66
2019-02-22T12:02:20.642Z,14.60
2019-02-22T12:04:20.445Z,14.53
2019-02-22T12:05:20.433Z,14.54
2019-02-22T12:06:20.438Z,14.29
2019-02-22T12:07:20.632Z,14.43
2019-02-22T12:08:20.632Z,14.37
2019-02-22T12:09:20.432Z,14.29
2019-02-22T12:10:20.635Z,14.12
2019-02-22T12:11:20.423Z,14.15
2019-02-22T12:12:20.421Z,14.12
2019-02-22T12:13:20.426Z,14.17
2019-02-22T12:14:20.425Z,14.11
2019-02-22T12:15:20.418Z,14.12
2019-02-22T12:16:20.414Z,14.08
2019-02-22T12:17:20.409Z,13.79
2019-02-22T12:18:20.412Z,13.65
2019-02-22T12:19:20.414Z,13.47
2019-02-22T12:20:20.401Z,13.44
2019-02-22T12:21:22.936Z,13.46
2019-02-22T12:22:20.403Z,13.49
2019-02-22T12:23:20.397Z,13.49
2019-02-22T12:24:20.395Z,13.47
2019-02-22T12:25:20.398Z,13.47
2019-02-22T12:26:20.389Z,13.35
2019-02-22T12:27:20.381Z,13.35
2019-02-22T12:28:20.380Z,13.28
2019-02-22T12:29:20.375Z,13.27
2019-02-22T12:31:20.377Z,13.18
2019-02-22T12:32:20.375Z,13.30
2019-02-22T12:33:20.367Z,13.35
2019-02-22T12:34:20.365Z,13.31
2019-02-22T12:35:20.364Z,13.30
2019-02-22T12:36:20.362Z,13.39
2019-02-22T12:37:20.553Z,13.30
2019-02-22T12:39:20.352Z,13.42
2019-02-22T12:40:20.346Z,13.39
2019-02-22T12:41:20.340Z,13.49
2019-02-22T12:42:20.339Z,13.44
2019-02-22T12:43:20.340Z,13.41
2019-02-22T12:44:20.334Z,13.49
2019-02-22T12:45:20.327Z,13.35
2019-02-22T12:46:20.328Z,13.47
2019-02-22T12:47:20.328Z,13.39
2019-02-22T12:48:20.320Z,13.42
2019-02-22T12:49:20.315Z,13.39
2019-02-22T12:50:20.522Z,13.46
2019-02-22T12:51:20.311Z,13.46
2019-02-22T12:52:20.306Z,13.46
2019-02-22T12:53:20.306Z,13.49
2019-02-22T12:54:20.301Z,13.60
2019-02-22T12:56:22.869Z,13.46
2019-02-22T12:57:20.296Z,13.50
2019-02-22T12:59:20.289Z,13.46
2019-02-22T13:00:20.283Z,13.46
2019-02-22T13:01:20.288Z,13.42
2019-02-22T13:04:20.280Z,13.60
2019-02-22T13:05:20.276Z,13.59
2019-02-22T13:06:20.274Z,13.67
2019-02-22T13:07:20.268Z,13.60
2019-02-22T13:08:20.466Z,13.74
2019-02-22T13:09:20.275Z,13.79
2019-02-22T13:10:20.462Z,13.86
2019-02-22T13:11:20.258Z,13.93
2019-02-22T13:12:20.257Z,13.95
2019-02-22T13:14:20.247Z,14.03
2019-02-22T13:16:20.242Z,14.03
2019-02-22T13:17:30.501Z,13.99
2019-02-22T13:19:20.240Z,13.97
2019-02-22T13:20:20.245Z,14.00
2019-02-22T13:21:20.231Z,14.10
2019-02-22T13:22:20.232Z,13.97
2019-02-22T13:23:20.231Z,14.05
2019-02-22T13:25:20.227Z,14.07
2019-02-22T13:26:20.227Z,14.05
2019-02-22T13:28:20.428Z,14.11
2019-02-22T13:29:20.219Z,14.11
2019-02-22T13:30:20.213Z,14.00
2019-02-22T13:31:29.629Z,14.03
2019-02-22T13:32:20.418Z,13.97
2019-02-22T13:33:20.229Z,14.00
2019-02-22T13:34:20.206Z,14.04
2019-02-22T13:35:20.205Z,14.15
2019-02-22T13:36:20.404Z,14.05
2019-02-22T13:38:20.200Z,14.12
2019-02-22T13:39:20.200Z,14.05
2019-02-22T13:40:20.195Z,14.03
2019-02-22T13:41:20.199Z,14.03
2019-02-22T13:42:20.396Z,14.12
2019-02-22T13:43:20.192Z,14.04
2019-02-22T13:44:20.187Z,14.10
2019-02-22T13:45:26.669Z,14.03
2019-02-22T13:46:20.183Z,14.03
2019-02-22T13:48:20.181Z,13.87
2019-02-22T13:49:20.176Z,13.89
2019-02-22T13:50:20.377Z,13.92
2019-02-22T13:51:20.374Z,13.83
2019-02-22T13:52:20.173Z,13.89
2019-02-22T13:53:20.164Z,13.86
2019-02-22T13:54:20.165Z,13.86
2019-02-22T13:55:20.161Z,13.77
2019-02-22T13:56:29.255Z,13.72
2019-02-22T13:57:20.154Z,13.78
2019-02-22T13:58:20.159Z,13.81
2019-02-22T13:59:20.154Z,13.75
2019-02-22T14:00:20.147Z,13.79
2019-02-22T14:01:20.147Z,13.74
2019-02-22T14:02:20.151Z,13.78
2019-02-22T14:03:20.141Z,13.65
2019-02-22T14:04:20.142Z,13.63
2019-02-22T14:05:20.134Z,13.59
2019-02-22T14:06:20.136Z,13.52
2019-02-22T14:07:20.340Z,13.67
2019-02-22T14:09:20.133Z,13.59
2019-02-22T14:10:20.128Z,13.63
2019-02-22T14:11:20.121Z,13.70
2019-02-22T14:12:20.119Z,13.75
2019-02-22T14:13:20.115Z,13.83
2019-02-22T14:14:20.120Z,13.81
2019-02-22T14:16:20.109Z,13.54
2019-02-22T14:17:20.115Z,13.67
2019-02-22T14:18:20.113Z,13.62
2019-02-22T14:19:20.104Z,13.59
2019-02-22T14:20:20.102Z,13.53
2019-02-22T14:21:20.100Z,13.35
2019-02-22T14:22:20.092Z,13.41
2019-02-22T14:23:20.090Z,13.38
2019-02-22T14:24:20.095Z,13.37